Terminal Aerodrome Forecast
Issued by NWS St Louis, MO

Home | Current Version | Previous Version | Text Only | Print | Product List | Glossary On
Versions: 1 2 3 4 5 6 7 8 9 10 11 12 13 14 15 16 17 18 19 20 21 22 23 24 25
614
FTUS43 KLSX 280900 AAA
TAFSTL
TAF AMD
KSTL 280900Z 2809/2912 09006KT P6SM OVC120
     FM281000 11010KT P6SM VCSH OVC070
      TEMPO 2813/2816 5SM -SHRA
     FM281600 13013KT P6SM VCSH OVC020
     FM282100 15010KT P6SM OVC020
     FM290500 VRB05KT 6SM -RA VCTS OVC012CB
     FM290900 06007KT 5SM -RA VCTS OVC007CB=

USA.gov is the U.S. government's official web portal to all federal, state and local government web resources and services.